Time;durP1;ratioP1;P1;durP2;ratioP2;P2;SDS_P1;SDS_P2;PMS_P1;PMS_P2;Temp;Humidity;BMP_temperature;BMP_pressure;BME280_temperature;BME280_humidity;BME280_pressure;Samples;Min_cycle;Max_cycle;Signal;HPM_P1;HPM_P2
2023/01/03 00:01:05;;;;;;;3.90;2.10;;;;;;;8.90;100.00;101447.94;5204486;28;20048;-73
2023/01/03 00:03:35;;;;;;;5.25;2.70;;;;;;;8.81;100.00;101458.50;5209059;28;20060;-73
2023/01/03 00:06:18;;;;;;;8.10;2.67;;;;;;;8.68;100.00;101456.06;5215216;28;20048;-73
2023/01/03 00:08:49;;;;;;;5.82;2.67;;;;;;;8.80;100.00;101464.59;5214228;28;20052;-73
2023/01/03 00:14:24;;;;;;;8.25;2.80;;;;;;;8.89;100.00;101467.06;5213934;28;20417;-73
2023/01/03 00:16:59;;;;;;;6.63;2.42;;;;;;;8.80;100.00;101467.22;5212310;28;20033;-73
2023/01/03 00:19:35;;;;;;;9.18;2.88;;;;;;;8.85;100.00;101468.00;5209848;28;20029;-72
2023/01/03 00:22:05;;;;;;;8.40;3.03;;;;;;;8.85;100.00;101474.94;5212938;28;20483;-73
2023/01/03 00:24:36;;;;;;;7.10;2.80;;;;;;;8.72;100.00;101466.44;5214645;28;20029;-73
2023/01/03 00:27:07;;;;;;;7.13;3.30;;;;;;;8.66;100.00;101474.34;5213572;28;20025;-72
2023/01/03 00:29:37;;;;;;;7.35;3.35;;;;;;;8.70;100.00;101470.81;5198580;28;20036;-73
2023/01/03 00:32:08;;;;;;;9.25;3.60;;;;;;;8.67;100.00;101488.22;5220208;28;20017;-72
2023/01/03 00:34:39;;;;;;;7.40;3.20;;;;;;;8.59;100.00;101477.91;5213784;28;20021;-72
2023/01/03 00:37:09;;;;;;;8.48;3.42;;;;;;;8.60;100.00;101479.66;5211092;28;20317;-74
2023/01/03 00:42:12;;;;;;;7.80;3.53;;;;;;;8.61;100.00;101491.78;5194885;28;20118;-76
2023/01/03 00:44:43;;;;;;;8.93;3.40;;;;;;;8.61;100.00;101501.34;5182139;28;20447;-77
2023/01/03 00:47:13;;;;;;;8.70;3.60;;;;;;;8.61;100.00;101507.44;5196205;28;20079;-76
2023/01/03 00:49:43;;;;;;;8.40;3.75;;;;;;;8.62;100.00;101509.16;5197090;28;20409;-76
2023/01/03 00:52:13;;;;;;;11.05;3.53;;;;;;;8.53;100.00;101513.63;5202062;28;20036;-76
2023/01/03 00:54:44;;;;;;;10.07;3.90;;;;;;;8.58;100.00;101510.03;5200980;28;20029;-76
2023/01/03 00:57:14;;;;;;;7.85;3.85;;;;;;;8.46;100.00;101523.25;5201122;28;20094;-77
2023/01/03 00:59:44;;;;;;;8.70;3.80;;;;;;;8.50;100.00;101524.94;5205337;28;20501;-76
2023/01/03 01:02:15;;;;;;;10.40;4.03;;;;;;;8.46;100.00;101525.84;5200743;28;20037;-76
2023/01/03 01:04:45;;;;;;;10.90;4.55;;;;;;;8.44;100.00;101525.00;5202393;28;20032;-76
2023/01/03 01:07:15;;;;;;;9.68;4.53;;;;;;;8.57;100.00;101531.78;5206809;28;20024;-77
2023/01/03 01:09:46;;;;;;;11.68;4.80;;;;;;;8.31;100.00;101539.03;5200672;28;20453;-77
2023/01/03 01:12:16;;;;;;;10.10;4.80;;;;;;;8.45;100.00;101533.66;5199619;28;20021;-78
2023/01/03 01:14:46;;;;;;;9.93;4.30;;;;;;;8.40;100.00;101538.91;5171319;28;20120;-77
2023/01/03 01:17:16;;;;;;;10.68;5.10;;;;;;;8.46;100.00;101532.78;5202938;28;20021;-77
2023/01/03 01:19:47;;;;;;;9.30;4.18;;;;;;;8.46;100.00;101538.00;5200437;28;20052;-77
2023/01/03 01:22:17;;;;;;;10.10;4.30;;;;;;;8.33;100.00;101542.50;5202580;28;20390;-77
2023/01/03 01:24:48;;;;;;;8.15;4.40;;;;;;;8.41;100.00;101538.03;5199753;28;20087;-77
2023/01/03 01:27:18;;;;;;;7.90;3.70;;;;;;;8.30;100.00;101546.84;5200991;28;20399;-77
2023/01/03 01:29:48;;;;;;;11.18;3.85;;;;;;;8.20;100.00;101551.31;5203305;28;20029;-77
2023/01/03 01:32:19;;;;;;;7.30;3.47;;;;;;;8.15;100.00;101547.84;5180186;28;20033;-77
2023/01/03 01:34:49;;;;;;;10.13;4.00;;;;;;;8.14;100.00;101563.47;5193276;28;20039;-77
2023/01/03 01:37:19;;;;;;;6.82;3.40;;;;;;;8.15;100.00;101568.69;5192642;28;20034;-76
2023/01/03 01:39:49;;;;;;;6.50;3.20;;;;;;;8.21;100.00;101568.66;5194697;28;20904;-77
2023/01/03 01:45:13;;;;;;;7.80;3.00;;;;;;;8.03;100.00;101567.94;5191094;28;20037;-78
2023/01/03 01:48:00;;;;;;;11.82;3.33;;;;;;;7.97;100.00;101575.78;5195211;28;20239;-77
2023/01/03 01:50:42;;;;;;;7.50;3.30;;;;;;;8.02;100.00;101582.69;5198324;28;20157;-77
2023/01/03 01:53:28;;;;;;;6.07;2.42;;;;;;;8.19;100.00;101580.81;5180598;28;20034;-76
2023/01/03 01:56:06;;;;;;;7.30;2.35;;;;;;;8.23;100.00;101584.28;5198300;28;20181;-77
2023/01/03 01:58:40;;;;;;;7.00;2.42;;;;;;;8.19;100.00;101586.03;5180516;28;20233;-76
2023/01/03 02:01:13;;;;;;;9.40;2.45;;;;;;;8.11;100.00;101587.81;5198407;28;20036;-76
2023/01/03 02:03:45;;;;;;;7.80;2.55;;;;;;;8.05;100.00;101587.03;5203314;28;20061;-77
2023/01/03 02:06:16;;;;;;;6.50;2.33;;;;;;;8.15;100.00;101591.25;5195630;28;20411;-77
2023/01/03 02:08:46;;;;;;;10.73;2.55;;;;;;;8.19;100.00;101599.06;5199818;28;20017;-76
2023/01/03 02:11:19;;;;;;;6.93;2.42;;;;;;;8.15;100.00;101596.44;5177460;28;20029;-76
2023/01/03 02:14:11;;;;;;;4.70;2.17;;;;;;;8.17;100.00;101598.19;5194660;28;20033;-77
2023/01/03 02:17:14;;;;;;;7.80;2.20;;;;;;;8.17;100.00;101592.97;5172929;28;20036;-77
2023/01/03 02:19:56;;;;;;;9.30;2.10;;;;;;;7.98;100.00;101604.44;5193053;28;20402;-76
2023/01/03 02:22:45;;;;;;;9.43;2.45;;;;;;;7.93;100.00;101603.63;5199440;28;20029;-77
2023/01/03 02:25:57;;;;;;;7.03;1.90;;;;;;;7.86;100.00;101604.53;5193066;28;20034;-76
2023/01/03 02:28:49;;;;;;;7.05;1.80;;;;;;;8.06;100.00;101607.81;5176356;28;20553;-77
2023/01/03 02:31:24;;;;;;;7.18;3.13;;;;;;;8.00;100.00;101610.47;5196454;28;20403;-76
2023/01/03 02:34:03;;;;;;;7.77;2.60;;;;;;;8.00;100.00;101614.81;5192929;28;20057;-76
2023/01/03 02:36:55;;;;;;;7.40;2.35;;;;;;;7.97;100.00;101614.84;5198750;28;20028;-77
2023/01/03 02:39:33;;;;;;;6.50;1.73;;;;;;;7.96;100.00;101614.00;5176851;28;20095;-77
2023/01/03 02:45:12;;;;;;;7.45;2.03;;;;;;;7.98;100.00;101627.84;5192452;28;20237;-77
2023/01/03 02:47:56;;;;;;;6.15;1.70;;;;;;;7.88;100.00;101627.94;5176476;28;20234;-77
2023/01/03 02:50:34;;;;;;;8.02;1.80;;;;;;;7.80;100.00;101622.78;5196501;28;20029;-77
2023/01/03 02:53:09;;;;;;;6.82;1.70;;;;;;;7.82;100.00;101628.84;5194399;28;20116;-76
2023/01/03 02:55:42;;;;;;;7.20;2.25;;;;;;;7.84;100.00;101640.09;5195777;28;20056;-76
2023/01/03 02:58:25;;;;;;;6.93;2.00;;;;;;;7.66;100.00;101634.19;5201168;28;20029;-76
2023/01/03 03:00:58;;;;;;;8.73;2.22;;;;;;;7.82;100.00;101639.25;5205271;28;20025;-77
2023/01/03 03:03:34;;;;;;;9.15;2.20;;;;;;;7.67;100.00;101635.91;5195406;28;20034;-78
2023/01/03 03:06:28;;;;;;;;;;;;;;;7.59;100.00;101638.56;5191049;28;20495;-77
2023/01/03 03:08:58;;;;;;;7.40;2.17;;;;;;;7.73;100.00;101636.72;5175673;28;19920;-77
2023/01/03 03:14:28;;;;;;;6.68;2.28;;;;;;;7.49;100.00;101647.28;5192810;28;20087;-77
2023/01/03 03:17:30;;;;;;;7.78;2.53;;;;;;;7.45;100.00;101652.50;5185145;28;20025;-76
2023/01/03 03:25:51;;;;;;;6.55;1.98;;;;;;;7.43;100.00;101659.47;5201625;28;20118;-77
2023/01/03 03:28:33;;;;;;;4.97;1.80;;;;;;;7.22;100.00;101660.41;5201193;28;20394;-76
2023/01/03 03:31:17;;;;;;;8.57;2.38;;;;;;;7.11;100.00;101663.94;5198078;28;20025;-77
2023/01/03 03:34:05;;;;;;;6.53;2.28;;;;;;;7.04;100.00;101663.97;5182724;28;20040;-77
2023/01/03 03:36:55;;;;;;;4.82;1.80;;;;;;;7.12;100.00;101662.22;5183540;28;20032;-77
2023/01/03 03:45:17;;;;;;;7.63;2.50;;;;;;;6.81;100.00;101665.81;5204243;28;20059;-77
2023/01/03 03:47:55;;;;;;;5.22;2.00;;;;;;;6.85;100.00;101664.91;5202876;28;20137;-77
2023/01/03 03:50:42;;;;;;;4.95;1.92;;;;;;;6.72;100.00;101669.28;5204402;28;20072;-77
2023/01/03 03:53:15;;;;;;;13.10;3.47;;;;;;;6.66;100.00;101668.44;5205014;28;20026;-77
2023/01/03 03:55:53;;;;;;;7.53;2.70;;;;;;;6.93;100.00;101673.56;5207254;28;20394;-77
2023/01/03 03:58:30;;;;;;;6.30;2.80;;;;;;;6.75;100.00;101677.06;5197242;28;20079;-77
2023/01/03 04:01:02;;;;;;;7.43;2.70;;;;;;;6.79;100.00;101677.94;5184860;28;20028;-77
2023/01/03 04:03:33;;;;;;;6.43;2.60;;;;;;;6.68;100.00;101684.88;5213710;28;20418;-77
2023/01/03 04:06:12;;;;;;;7.88;2.30;;;;;;;6.68;100.00;101677.09;5210267;28;20047;-77
2023/01/03 04:08:43;;;;;;;6.20;2.25;;;;;;;6.55;100.00;101686.63;5205277;28;20494;-77
2023/01/03 04:11:13;;;;;;;6.68;2.67;;;;;;;6.52;100.00;101683.16;5214121;28;20035;-77
2023/01/03 04:13:44;;;;;;;5.90;2.42;;;;;;;6.43;100.00;101686.66;5201418;28;20473;-77
2023/01/03 04:16:14;;;;;;;7.03;2.13;;;;;;;6.32;100.00;101685.81;5204101;28;20028;-76
2023/01/03 04:18:44;;;;;;;10.93;2.83;;;;;;;6.28;100.00;101697.03;5215314;28;20100;-76
2023/01/03 04:21:15;;;;;;;10.45;2.63;;;;;;;6.21;100.00;101697.03;5202681;28;20517;-76
2023/01/03 04:23:45;;;;;;;5.80;2.40;;;;;;;6.18;100.00;101692.72;5211445;28;20044;-77
2023/01/03 04:26:16;;;;;;;6.43;2.60;;;;;;;6.18;100.00;101694.44;5196211;28;20044;-77
2023/01/03 04:28:46;;;;;;;8.82;2.63;;;;;;;6.20;100.00;101697.91;5210096;28;20458;-76
2023/01/03 04:31:16;;;;;;;6.95;2.60;;;;;;;6.15;100.00;101699.66;5211795;28;20386;-77
2023/01/03 04:33:47;;;;;;;4.20;2.47;;;;;;;6.21;100.00;101702.22;5214416;28;20034;-76
2023/01/03 04:36:17;;;;;;;4.70;2.40;;;;;;;6.36;100.00;101699.63;5207491;28;20084;-76
2023/01/03 04:38:47;;;;;;;8.80;2.20;;;;;;;6.41;100.00;101695.31;5208174;28;20494;-78
2023/01/03 04:41:18;;;;;;;4.97;2.22;;;;;;;6.23;100.00;101703.13;5195246;28;20036;-76
2023/01/03 04:44:03;;;;;;;7.15;2.42;;;;;;;6.14;100.00;101713.47;5201795;28;20324;-74
2023/01/03 04:46:37;;;;;;;7.25;2.70;;;;;;;6.15;100.00;101712.63;5207348;28;20029;-77
2023/01/03 04:49:09;;;;;;;5.47;2.70;;;;;;;6.22;100.00;101711.78;5210205;28;20269;-76
2023/01/03 04:51:39;;;;;;;6.93;2.60;;;;;;;6.27;100.00;101715.22;5212529;28;20035;-77
2023/01/03 04:54:09;;;;;;;7.10;2.42;;;;;;;6.40;100.00;101704.81;5192236;28;20033;-76
2023/01/03 04:56:39;;;;;;;7.47;2.47;;;;;;;6.46;100.00;101711.75;5209935;28;20036;-77
2023/01/03 04:59:10;;;;;;;13.25;2.95;;;;;;;6.56;100.00;101713.50;5213707;28;20028;-77
2023/01/03 05:01:50;;;;;;;5.90;2.60;;;;;;;6.32;100.00;101710.88;5210186;28;20175;-77
2023/01/03 05:04:20;;;;;;;7.72;2.65;;;;;;;6.37;100.00;101716.94;5210283;28;20025;-77
2023/01/03 05:06:52;;;;;;;8.82;3.05;;;;;;;6.38;100.00;101718.66;5190407;28;20091;-77
2023/01/03 05:09:23;;;;;;;6.47;3.13;;;;;;;6.48;100.00;101713.50;5204205;28;20029;-77
2023/01/03 05:11:53;;;;;;;10.27;3.85;;;;;;;6.49;100.00;101711.75;5209135;28;20051;-77
2023/01/03 05:14:23;;;;;;;8.38;3.67;;;;;;;6.65;100.00;101718.66;5207625;28;20026;-77
2023/01/03 05:16:54;;;;;;;9.35;3.63;;;;;;;6.67;100.00;101723.00;5196385;28;20050;-77
2023/01/03 05:19:24;;;;;;;9.32;4.18;;;;;;;6.68;100.00;101721.25;5207948;28;20312;-76
2023/01/03 05:27:32;;;;;;;15.77;7.35;;;;;;;6.84;100.00;101713.44;5205180;28;20420;-77
2023/01/03 05:30:03;;;;;;;8.50;5.43;;;;;;;6.99;100.00;101712.50;5202517;28;20053;-76
2023/01/03 05:32:33;;;;;;;11.70;6.00;;;;;;;6.92;100.00;101708.22;5209530;28;20044;-77
2023/01/03 05:35:04;;;;;;;9.27;5.80;;;;;;;6.95;100.00;101721.19;5211099;28;20033;-77
2023/01/03 05:37:34;;;;;;;13.10;8.10;;;;;;;7.00;100.00;101716.84;5210796;28;20482;-77
2023/01/03 05:40:05;;;;;;;10.63;6.47;;;;;;;6.95;100.00;101723.78;5209246;28;20394;-77
2023/01/03 05:42:35;;;;;;;13.57;6.18;;;;;;;6.93;100.00;101726.38;5196457;28;20040;-76
2023/01/03 05:45:06;;;;;;;9.07;5.40;;;;;;;6.93;100.00;101721.19;5207706;28;20094;-76
2023/01/03 05:47:37;;;;;;;9.25;4.68;;;;;;;6.86;100.00;101718.59;5209580;28;20036;-76
2023/01/03 05:50:07;;;;;;;8.20;4.10;;;;;;;6.94;100.00;101720.31;5192334;28;20034;-77
2023/01/03 05:52:38;;;;;;;8.55;4.68;;;;;;;6.98;100.00;101726.38;5204315;28;20426;-78
2023/01/03 05:55:08;;;;;;;7.75;4.43;;;;;;;6.94;100.00;101725.50;5211189;28;20041;-77
2023/01/03 05:57:39;;;;;;;7.80;4.55;;;;;;;6.98;100.00;101728.97;5207716;28;20478;-77
2023/01/03 06:00:10;;;;;;;10.18;4.75;;;;;;;7.09;100.00;101728.06;5186546;28;20036;-77
2023/01/03 06:02:40;;;;;;;11.50;5.00;;;;;;;7.07;100.00;101732.41;5209196;28;20040;-77
2023/01/03 06:05:10;;;;;;;13.52;5.15;;;;;;;7.11;100.00;101741.06;5190867;28;20021;-77
2023/01/03 06:07:41;;;;;;;10.43;5.72;;;;;;;7.06;100.00;101735.88;5208436;28;20497;-77
2023/01/03 06:10:11;;;;;;;15.90;6.72;;;;;;;7.11;100.00;101734.13;5213151;28;20037;-76
2023/01/03 06:12:41;;;;;;;19.52;8.20;;;;;;;7.06;100.00;101740.19;5208577;28;20045;-77
2023/01/03 06:15:12;;;;;;;14.15;8.20;;;;;;;7.19;100.00;101740.19;5212546;28;20037;-77
2023/01/03 06:18:01;;;;;;;15.48;7.55;;;;;;;7.16;100.00;101744.53;5204011;28;20407;-76
2023/01/03 06:20:31;;;;;;;14.25;7.53;;;;;;;7.19;100.00;101749.69;5206678;28;20123;-76
2023/01/03 06:23:01;;;;;;;17.52;7.38;;;;;;;7.12;100.00;101745.41;5200463;28;20092;-76
2023/01/03 06:25:32;;;;;;;11.93;7.07;;;;;;;7.11;100.00;101743.69;5209121;28;20055;-75
2023/01/03 06:28:02;;;;;;;12.05;7.07;;;;;;;7.05;100.00;101747.16;5208866;28;20082;-77
2023/01/03 06:30:32;;;;;;;12.95;7.45;;;;;;;7.06;100.00;101737.59;5208648;28;20043;-77
2023/01/03 06:33:03;;;;;;;13.65;7.47;;;;;;;7.05;100.00;101751.47;5209393;28;20029;-76
2023/01/03 06:35:33;;;;;;;15.45;7.82;;;;;;;6.98;100.00;101748.06;5189099;28;20036;-78
2023/01/03 06:38:03;;;;;;;15.02;8.18;;;;;;;7.04;100.00;101755.81;5204332;28;20065;-76
2023/01/03 06:40:34;;;;;;;9.85;6.60;;;;;;;6.98;100.00;101752.38;5208905;28;20036;-76
2023/01/03 06:43:04;;;;;;;11.85;6.40;;;;;;;7.08;100.00;101756.69;5210306;28;20272;-76
2023/01/03 06:54:09;;;;;;;56.10;27.83;;;;;;;7.08;100.00;101759.28;5203008;28;20112;-75
2023/01/03 06:56:39;;;;;;;11.52;6.78;;;;;;;7.12;100.00;101758.41;5206668;28;20084;-76
2023/01/03 06:59:09;;;;;;;11.85;7.07;;;;;;;7.04;100.00;101768.81;5211377;28;20151;-76
2023/01/03 07:01:40;;;;;;;10.63;6.70;;;;;;;7.14;100.00;101761.84;5208650;28;20061;-76
2023/01/03 07:04:10;;;;;;;12.40;7.65;;;;;;;7.00;100.00;101761.91;5208093;28;20025;-76
2023/01/03 07:06:41;;;;;;;15.30;7.15;;;;;;;7.00;100.00;101774.00;5207306;28;20423;-76
2023/01/03 07:09:12;;;;;;;13.93;7.95;;;;;;;6.97;100.00;101774.88;5204515;28;20044;-76
2023/01/03 07:11:43;;;;;;;11.38;7.32;;;;;;;6.90;100.00;101780.13;5208815;28;20040;-77
2023/01/03 07:14:13;;;;;;;10.77;7.80;;;;;;;7.01;100.00;101781.81;5203751;28;20037;-76
2023/01/03 07:16:45;;;;;;;13.55;8.07;;;;;;;7.10;100.00;101786.13;5207541;28;20022;-76
2023/01/03 07:19:18;;;;;;;11.98;7.95;;;;;;;7.07;100.00;101787.00;5208784;28;20501;-75
2023/01/03 07:21:48;;;;;;;10.90;7.53;;;;;;;7.04;100.00;101788.72;5198852;28;20033;-76
2023/01/03 07:24:19;;;;;;;12.23;8.35;;;;;;;6.96;100.00;101793.09;5197530;28;20423;-76
2023/01/03 07:26:49;;;;;;;12.40;8.23;;;;;;;6.94;100.00;101795.69;5183503;28;20021;-76
2023/01/03 07:29:19;;;;;;;11.63;8.15;;;;;;;6.99;100.00;101799.16;5198326;28;20036;-76
2023/01/03 07:31:49;;;;;;;12.38;8.73;;;;;;;7.03;100.00;101810.38;5196885;28;20538;-76
2023/01/03 07:34:20;;;;;;;14.32;8.90;;;;;;;7.02;100.00;101813.84;5200463;28;20144;-76
2023/01/03 07:36:50;;;;;;;15.57;9.48;;;;;;;7.14;100.00;101813.84;5211395;28;20052;-76
2023/01/03 07:39:20;;;;;;;15.55;9.60;;;;;;;7.09;100.00;101820.81;5191778;28;20021;-76
2023/01/03 07:44:39;;;;;;;14.80;9.30;;;;;;;7.24;100.00;101831.16;5212231;28;20098;-75
2023/01/03 07:47:10;;;;;;;15.45;9.23;;;;;;;7.22;100.00;101825.09;5194080;28;20487;-74
2023/01/03 07:49:40;;;;;;;14.48;9.68;;;;;;;7.18;100.00;101828.56;5215108;28;20269;-76
2023/01/03 07:52:10;;;;;;;15.15;9.60;;;;;;;7.13;100.00;101838.13;5206022;28;20064;-76
2023/01/03 07:54:41;;;;;;;19.67;10.27;;;;;;;7.04;100.00;101830.31;5213832;28;20055;-76
2023/01/03 07:57:13;;;;;;;17.63;10.55;;;;;;;7.15;100.00;101834.66;5215371;28;20304;-76
2023/01/03 07:59:43;;;;;;;14.48;9.52;;;;;;;7.13;100.00;101835.50;5206728;28;20028;-76
2023/01/03 08:02:13;;;;;;;20.10;10.15;;;;;;;7.07;100.00;101833.78;5198085;28;20039;-76
2023/01/03 08:04:43;;;;;;;16.20;8.98;;;;;;;7.11;100.00;101834.66;5211198;28;20268;-76
2023/01/03 08:07:14;;;;;;;15.75;8.75;;;;;;;7.09;100.00;101836.41;5190769;28;20021;-76
2023/01/03 08:15:22;;;;;;;15.32;8.48;;;;;;;7.16;100.00;101848.50;5210145;28;20028;-76
2023/01/03 08:17:52;;;;;;;12.88;8.05;;;;;;;7.22;100.00;101850.22;5211181;28;20371;-76
2023/01/03 08:20:23;;;;;;;15.07;8.63;;;;;;;7.30;100.00;101856.28;5207750;28;20326;-76
2023/01/03 08:22:53;;;;;;;12.57;8.10;;;;;;;7.24;100.00;101855.41;5209910;28;20547;-76
2023/01/03 08:25:23;;;;;;;13.18;7.88;;;;;;;7.49;100.00;101854.53;5208334;28;20151;-76
2023/01/03 08:27:57;;;;;;;13.32;6.97;;;;;;;7.73;100.00;101852.66;5206568;28;20030;-77
2023/01/03 08:30:29;;;;;;;12.60;6.93;;;;;;;7.70;100.00;101849.25;5206913;28;20113;-77
2023/01/03 08:33:02;;;;;;;10.45;6.68;;;;;;;8.12;100.00;101857.72;5207351;28;20049;-76
2023/01/03 08:35:36;;;;;;;12.98;6.80;;;;;;;7.98;100.00;101864.72;5210629;28;20064;-76
2023/01/03 08:38:13;;;;;;;9.38;5.85;;;;;;;8.17;100.00;101858.56;5195927;28;20024;-76
2023/01/03 08:40:45;;;;;;;11.25;5.88;;;;;;;8.16;100.00;101863.75;5206410;28;20052;-76
2023/01/03 08:43:16;;;;;;;10.93;5.50;;;;;;;7.73;100.00;101865.69;5210026;28;20184;-76
2023/01/03 08:45:48;;;;;;;11.98;6.78;;;;;;;7.58;100.00;101870.09;5210811;28;20104;-77
2023/01/03 08:48:20;;;;;;;10.20;6.47;;;;;;;7.58;100.00;101865.75;5211846;28;20021;-76
2023/01/03 08:50:51;;;;;;;25.08;10.15;;;;;;;7.59;100.00;101864.88;5192384;28;20118;-76
2023/01/03 08:53:23;;;;;;;21.13;11.23;;;;;;;7.55;100.00;101872.69;5211686;28;20493;-76
2023/01/03 08:55:54;;;;;;;12.98;6.90;;;;;;;7.69;100.00;101869.16;5206147;28;20025;-76
2023/01/03 08:58:24;;;;;;;14.57;7.43;;;;;;;7.74;100.00;101866.56;5206171;28;20036;-76
2023/01/03 09:00:54;;;;;;;12.07;7.20;;;;;;;7.59;100.00;101879.63;5205344;28;20021;-77
2023/01/03 09:03:24;;;;;;;12.35;6.88;;;;;;;7.52;100.00;101881.38;5210165;28;20029;-76
2023/01/03 09:05:59;;;;;;;9.95;7.00;;;;;;;7.74;100.00;101882.19;5211196;28;20032;-76
2023/01/03 09:08:31;;;;;;;13.35;7.50;;;;;;;7.74;100.00;101882.19;5212564;28;20448;-76
2023/01/03 09:11:05;;;;;;;13.68;7.70;;;;;;;7.86;100.00;101893.41;5211505;28;20032;-76
2023/01/03 09:13:37;;;;;;;12.23;7.70;;;;;;;7.91;100.00;101886.44;5210493;28;20029;-76
2023/01/03 09:16:10;;;;;;;13.02;7.45;;;;;;;8.10;100.00;101898.53;5209236;28;20028;-76
2023/01/03 09:18:41;;;;;;;14.07;7.63;;;;;;;8.36;100.00;101903.66;5210236;28;20116;-76
2023/01/03 09:21:11;;;;;;;13.32;7.68;;;;;;;8.58;100.00;101903.47;5205472;28;20021;-76
2023/01/03 09:23:41;;;;;;;11.95;7.20;;;;;;;8.61;100.00;101900.00;5200639;28;20033;-76
2023/01/03 09:26:11;;;;;;;9.85;6.65;;;;;;;8.89;99.42;101907.63;5183189;28;20025;-76
2023/01/03 09:28:42;;;;;;;14.05;6.50;;;;;;;8.55;98.33;101902.66;5200989;28;20028;-76
2023/01/03 09:31:12;;;;;;;13.82;6.43;;;;;;;8.68;97.52;101905.16;5210290;28;20029;-76
2023/01/03 09:33:42;;;;;;;12.50;5.85;;;;;;;8.35;99.11;101910.56;5206214;28;20038;-76
2023/01/03 09:36:13;;;;;;;11.90;5.80;;;;;;;8.61;97.27;101906.09;5185933;28;20430;-76
2023/01/03 09:38:43;;;;;;;12.10;6.38;;;;;;;8.62;97.00;101909.56;5205986;28;20028;-76
2023/01/03 09:41:22;;;;;;;11.43;6.50;;;;;;;8.66;96.17;101909.53;5202782;28;20057;-76
2023/01/03 09:44:00;;;;;;;11.20;6.00;;;;;;;8.74;95.21;101912.94;5204901;28;20029;-76
2023/01/03 09:46:32;;;;;;;11.73;5.93;;;;;;;8.69;95.84;101912.09;5205105;28;20570;-76
2023/01/03 09:49:04;;;;;;;13.40;6.47;;;;;;;8.68;95.53;101915.59;5203452;28;20049;-76
2023/01/03 10:03:44;;;;;;;11.63;6.03;;;;;;;8.86;93.24;101915.47;5208183;28;20129;-76
2023/01/03 10:06:53;;;;;;;10.77;6.47;;;;;;;8.82;94.35;101924.19;5201067;28;20129;-76
2023/01/03 10:09:43;;;;;;;11.68;5.63;;;;;;;8.81;92.76;101918.97;5199443;28;20029;-76
2023/01/03 10:12:33;;;;;;;8.77;5.25;;;;;;;8.74;91.49;101918.16;5199283;28;20032;-75
2023/01/03 10:15:17;;;;;;;11.27;5.50;;;;;;;8.81;91.70;101906.81;5206304;28;20116;-76
2023/01/03 10:17:53;;;;;;;11.10;5.72;;;;;;;8.83;91.33;101912.00;5202816;28;20033;-77
2023/01/03 10:20:29;;;;;;;8.73;5.38;;;;;;;8.95;91.79;101907.59;5204455;28;20060;-76
2023/01/03 10:23:00;;;;;;;11.57;5.50;;;;;;;8.94;91.38;101907.59;5198557;28;20393;-75
2023/01/03 10:25:30;;;;;;;9.27;5.18;;;;;;;8.95;91.88;101912.81;5199536;28;20033;-76
2023/01/03 10:28:10;;;;;;;12.10;6.03;;;;;;;8.96;92.22;101898.88;5201407;28;20029;-76
2023/01/03 10:31:13;;;;;;;10.02;5.03;;;;;;;8.87;92.66;101904.16;5180767;28;20079;-76
2023/01/03 10:33:46;;;;;;;10.75;6.15;;;;;;;9.10;92.44;101903.97;5199888;28;20484;-76
2023/01/03 10:36:19;;;;;;;10.65;5.72;;;;;;;9.23;90.26;101901.25;5205168;28;20029;-76
2023/01/03 10:39:07;;;;;;;10.45;5.72;;;;;;;9.20;91.07;101909.09;5198383;28;21318;-76
2023/01/03 10:41:45;;;;;;;8.13;5.10;;;;;;;9.36;90.38;101908.09;5203110;28;20427;-76
2023/01/03 10:44:28;;;;;;;7.53;4.70;;;;;;;9.30;88.66;101900.34;5202176;28;20040;-76
2023/01/03 10:47:08;;;;;;;6.70;4.30;;;;;;;9.30;88.12;101903.78;5204285;28;20032;-76
2023/01/03 10:49:43;;;;;;;7.05;4.15;;;;;;;9.17;87.52;101896.09;5186263;28;20060;-76
2023/01/03 10:52:21;;;;;;;13.95;6.13;;;;;;;9.17;88.00;101885.66;5197004;28;20618;-76
2023/01/03 10:54:55;;;;;;;11.40;5.70;;;;;;;9.16;86.12;101884.78;5204623;28;20464;-75
2023/01/03 10:57:58;;;;;;;10.48;5.38;;;;;;;8.99;87.43;101884.94;5197375;28;20063;-76
2023/01/03 11:00:33;;;;;;;10.25;4.57;;;;;;;8.93;88.11;101892.81;5205336;28;20171;-77
2023/01/03 11:03:24;;;;;;;9.98;4.53;;;;;;;8.85;87.89;101894.59;5188310;28;20175;-76
2023/01/03 11:06:00;;;;;;;11.35;5.43;;;;;;;8.94;87.53;101894.56;5202131;28;20399;-76
2023/01/03 11:08:46;;;;;;;11.98;5.25;;;;;;;8.83;87.70;101894.63;5207177;28;20325;-76
2023/01/03 11:11:31;;;;;;;10.25;5.28;;;;;;;8.83;88.91;101889.44;5201549;28;20079;-76
2023/01/03 11:14:25;;;;;;;9.07;4.55;;;;;;;8.78;87.51;101885.13;5206204;28;20356;-76
2023/01/03 11:16:59;;;;;;;11.40;5.50;;;;;;;8.83;87.67;101888.53;5184996;28;20261;-76
2023/01/03 11:19:32;;;;;;;9.07;4.63;;;;;;;8.86;87.81;101880.72;5180842;28;20433;-76
2023/01/03 11:22:36;;;;;;;9.30;4.95;;;;;;;8.73;87.93;101887.75;5203218;28;20038;-76
2023/01/03 11:25:28;;;;;;;11.07;5.40;;;;;;;8.67;88.25;101881.72;5199342;28;20059;-76
2023/01/03 11:28:05;;;;;;;8.88;4.40;;;;;;;8.84;88.72;101883.34;5195808;28;20479;-74
2023/01/03 11:30:45;;;;;;;12.80;4.05;;;;;;;8.77;86.98;101870.34;5176609;28;20033;-76
2023/01/03 11:33:36;;;;;;;7.65;3.70;;;;;;;8.78;86.87;101875.56;5195517;28;20032;-76
2023/01/03 11:36:13;;;;;;;9.50;3.97;;;;;;;8.82;87.49;101873.78;5184861;28;20186;-76
2023/01/03 11:39:09;;;;;;;7.07;3.75;;;;;;;8.74;87.59;101866.03;5194928;28;20029;-76
2023/01/03 11:41:39;;;;;;;8.98;3.92;;;;;;;8.70;87.52;101860.88;5199951;28;20048;-76
2023/01/03 11:44:25;;;;;;;6.87;3.73;;;;;;;8.71;87.25;101860.84;5187868;28;20421;-76
2023/01/03 11:47:22;;;;;;;6.78;3.78;;;;;;;8.70;87.17;101860.88;5197967;28;20303;-76
2023/01/03 11:50:23;;;;;;;9.60;3.50;;;;;;;8.72;87.42;101852.13;5199219;28;20033;-76
2023/01/03 11:52:55;;;;;;;8.48;3.10;;;;;;;8.61;86.48;101851.38;5193607;28;20029;-76
2023/01/03 11:55:44;;;;;;;10.68;3.15;;;;;;;8.66;86.21;101844.38;5204306;28;20037;-76
2023/01/03 11:58:43;;;;;;;7.53;2.80;;;;;;;8.75;86.39;101844.28;5196123;28;20033;-76
2023/01/03 12:01:26;;;;;;;8.90;2.85;;;;;;;8.76;85.79;101845.16;5181410;28;20426;-76
2023/01/03 12:04:15;;;;;;;4.88;2.38;;;;;;;8.79;85.62;101840.81;5185753;28;20060;-76
2023/01/03 12:07:25;;;;;;;4.70;2.40;;;;;;;8.83;86.09;101832.06;5193214;28;20325;-76
2023/01/03 12:10:13;;;;;;;8.80;2.80;;;;;;;8.76;86.22;101827.78;5091070;29;20035;-76
2023/01/03 12:12:59;;;;;;;5.00;2.60;;;;;;;8.78;86.95;101831.25;5192845;28;20036;-77
2023/01/03 12:15:45;;;;;;;7.75;2.70;;;;;;;8.68;86.91;101833.91;5200981;28;20045;-76
2023/01/03 12:18:31;;;;;;;8.25;2.40;;;;;;;8.73;86.63;101825.19;5183796;28;20454;-76
2023/01/03 12:21:09;;;;;;;5.78;2.30;;;;;;;8.72;86.50;101825.22;5195096;28;20053;-76
2023/01/03 12:23:48;;;;;;;5.47;2.33;;;;;;;8.75;86.44;101818.22;5198086;28;20405;-76
2023/01/03 12:26:23;;;;;;;7.57;3.03;;;;;;;8.74;87.01;101821.72;5195009;28;20566;-76
2023/01/03 12:29:04;;;;;;;;;;;;;;;8.66;86.72;101826.13;5184175;28;20036;-76
2023/01/03 12:31:41;;;;;;;9.55;2.50;;;;;;;8.81;87.28;101823.41;5202435;28;20199;-76
2023/01/03 12:34:38;;;;;;;11.38;3.38;;;;;;;8.76;87.65;101809.53;5202629;28;20025;-76
2023/01/03 12:37:20;;;;;;;8.63;3.55;;;;;;;8.87;87.86;101817.28;5200994;28;20202;-76
2023/01/03 12:39:56;;;;;;;9.05;2.60;;;;;;;8.91;88.05;101809.41;5197485;28;20491;-76
2023/01/03 12:42:54;;;;;;;8.38;2.88;;;;;;;8.83;88.06;101815.56;5230734;22;20064;-92
2023/01/03 12:45:51;;;;;;;9.48;3.70;;;;;;;8.79;87.83;101813.88;5208597;28;20032;-93
2023/01/03 12:48:40;;;;;;;10.30;3.00;;;;;;;8.72;88.37;101813.03;5205285;28;20048;-92
2023/01/03 12:51:14;;;;;;;9.60;3.17;;;;;;;8.70;87.77;101809.59;5207316;28;20053;-91
2023/01/03 12:54:14;;;;;;;7.15;2.25;;;;;;;8.76;89.11;101801.72;5206878;28;20108;-92
2023/01/03 12:57:06;;;;;;;9.77;3.30;;;;;;;8.78;88.96;101802.59;5183284;28;20560;-91
2023/01/03 12:59:45;;;;;;;7.13;2.10;;;;;;;8.82;89.44;101803.41;5207277;28;20116;-92
2023/01/03 13:02:42;;;;;;;7.53;2.30;;;;;;;8.92;89.10;101799.84;5201088;28;20058;-91
2023/01/03 13:05:36;;;;;;;6.93;2.97;;;;;;;8.82;89.32;101798.19;5209446;28;20025;-91